createdAt,value
2019-03-04T00:00:36.811Z,30.15
2019-03-04T00:03:07.931Z,39.92
2019-03-04T00:05:39.123Z,30.10
2019-03-04T00:08:11.401Z,39.60
2019-03-04T00:10:42.458Z,29.20
2019-03-04T00:13:13.553Z,26.42
2019-03-04T00:15:44.649Z,34.45
2019-03-04T00:18:15.904Z,29.75
2019-03-04T00:20:46.934Z,25.72
2019-03-04T00:23:18.026Z,28.40
2019-03-04T00:25:49.055Z,27.73
2019-03-04T00:28:20.112Z,29.37
2019-03-04T00:30:51.226Z,26.10
2019-03-04T00:33:22.304Z,25.75
2019-03-04T00:35:53.367Z,26.00
2019-03-04T00:38:24.479Z,31.00
2019-03-04T00:40:55.472Z,24.43
2019-03-04T00:43:26.511Z,28.70
2019-03-04T00:45:57.570Z,24.43
2019-03-04T00:48:29.675Z,34.60
2019-03-04T00:51:00.741Z,33.63
2019-03-04T00:53:31.868Z,26.68
2019-03-04T00:56:02.966Z,25.27
2019-03-04T00:58:34.134Z,32.00
2019-03-04T01:01:05.154Z,28.27
2019-03-04T01:03:36.238Z,28.95
2019-03-04T01:06:07.459Z,27.77
2019-03-04T01:08:38.690Z,28.27
2019-03-04T01:11:09.895Z,25.27
2019-03-04T01:13:41.908Z,27.70
2019-03-04T01:16:12.916Z,30.68
2019-03-04T01:18:44.014Z,27.75
2019-03-04T01:21:15.001Z,26.60
2019-03-04T01:23:46.098Z,25.70
2019-03-04T01:26:17.213Z,23.70
2019-03-04T01:28:48.246Z,34.48
2019-03-04T01:31:19.285Z,26.45
2019-03-04T01:33:50.324Z,26.97
2019-03-04T01:36:21.378Z,25.70
2019-03-04T01:38:52.412Z,27.65
2019-03-04T01:41:23.447Z,27.20
2019-03-04T01:43:54.864Z,23.47
2019-03-04T01:46:25.876Z,24.55
2019-03-04T01:48:56.980Z,20.95
2019-03-04T01:51:28.370Z,26.68
2019-03-04T01:53:59.481Z,28.17
2019-03-04T01:56:30.520Z,24.55
2019-03-04T01:59:01.552Z,24.15
2019-03-04T02:01:32.541Z,28.47
2019-03-04T02:04:03.528Z,26.00
2019-03-04T02:06:34.653Z,24.32
2019-03-04T02:09:07.107Z,26.82
2019-03-04T02:11:39.537Z,28.98
2019-03-04T02:14:10.681Z,26.65
2019-03-04T02:16:42.759Z,30.20
2019-03-04T02:19:15.174Z,31.57
2019-03-04T02:21:46.259Z,28.17
2019-03-04T02:24:22.668Z,29.12
2019-03-04T02:26:54.732Z,31.05
2019-03-04T02:29:26.663Z,29.70
2019-03-04T02:31:57.700Z,27.75
2019-03-04T02:34:28.743Z,29.60
2019-03-04T02:36:59.889Z,30.48
2019-03-04T02:39:30.956Z,28.77
2019-03-04T02:42:02.349Z,30.23
2019-03-04T02:44:33.315Z,35.25
2019-03-04T02:47:04.459Z,31.62
2019-03-04T02:49:35.507Z,28.65
2019-03-04T02:52:06.891Z,31.33
2019-03-04T02:54:37.894Z,39.42
2019-03-04T02:57:08.982Z,32.67
2019-03-04T02:59:40.079Z,32.83
2019-03-04T03:02:11.227Z,31.40
2019-03-04T03:04:42.439Z,31.17
2019-03-04T03:07:13.471Z,33.10
2019-03-04T03:09:44.510Z,39.20
2019-03-04T03:12:15.566Z,30.77
2019-03-04T03:14:46.630Z,30.08
2019-03-04T03:17:17.818Z,35.95
2019-03-04T03:19:48.914Z,29.12
2019-03-04T03:22:19.935Z,28.57
2019-03-04T03:24:51.003Z,31.05
2019-03-04T03:27:22.087Z,31.70
2019-03-04T03:29:53.475Z,28.73
2019-03-04T03:32:24.681Z,33.00
2019-03-04T03:34:55.787Z,32.23
2019-03-04T03:37:26.871Z,30.27
2019-03-04T03:39:57.879Z,32.75
2019-03-04T03:42:28.891Z,31.57
2019-03-04T03:45:00.365Z,32.15
2019-03-04T03:47:31.386Z,28.30
2019-03-04T03:50:02.456Z,34.33
2019-03-04T03:52:33.479Z,31.05
2019-03-04T03:55:07.533Z,30.62
2019-03-04T03:57:38.549Z,28.87
2019-03-04T04:00:20.440Z,31.77
2019-03-04T04:02:51.537Z,35.33
2019-03-04T04:05:22.607Z,29.70
2019-03-04T04:07:53.666Z,27.37
2019-03-04T04:10:24.810Z,32.10
2019-03-04T04:12:55.858Z,31.00
2019-03-04T04:15:26.995Z,35.15
2019-03-04T04:17:58.036Z,33.48
2019-03-04T04:20:29.068Z,35.03
2019-03-04T04:23:00.067Z,32.60
2019-03-04T04:25:31.438Z,32.42
2019-03-04T04:28:04.147Z,38.55
2019-03-04T04:30:36.403Z,28.33
2019-03-04T04:33:07.460Z,33.88
2019-03-04T04:35:38.445Z,36.70
2019-03-04T04:38:09.553Z,34.53
2019-03-04T04:40:40.568Z,34.40
2019-03-04T04:43:11.697Z,36.03
2019-03-04T04:45:42.842Z,38.88
2019-03-04T04:48:13.848Z,45.08
2019-03-04T04:50:45.015Z,38.25
2019-03-04T04:53:16.160Z,50.85
2019-03-04T04:55:47.242Z,35.60
2019-03-04T04:58:18.326Z,37.55
2019-03-04T05:00:49.417Z,39.45
2019-03-04T05:03:20.505Z,34.67
2019-03-04T05:05:51.619Z,39.70
2019-03-04T05:08:22.690Z,36.30
2019-03-04T05:10:53.884Z,35.28
2019-03-04T05:13:24.933Z,38.92
2019-03-04T05:15:55.983Z,37.42
2019-03-04T05:18:27.133Z,38.05
2019-03-04T05:20:58.167Z,41.42
2019-03-04T05:23:29.202Z,43.38
2019-03-04T05:26:00.239Z,42.38
2019-03-04T05:28:31.284Z,41.55
2019-03-04T05:31:02.322Z,49.95
2019-03-04T05:33:33.412Z,43.15
2019-03-04T05:36:04.585Z,38.75
2019-03-04T05:38:35.677Z,48.08
2019-03-04T05:41:06.871Z,40.05
2019-03-04T05:43:38.060Z,34.83
2019-03-04T05:46:09.100Z,35.73
2019-03-04T05:48:40.178Z,33.55
2019-03-04T05:51:11.280Z,39.53
2019-03-04T05:53:42.425Z,39.38
2019-03-04T05:56:13.406Z,38.23
2019-03-04T05:58:44.497Z,45.88
2019-03-04T06:01:27.535Z,39.23
2019-03-04T06:04:01.721Z,40.63
2019-03-04T06:06:49.598Z,45.05
2019-03-04T06:09:20.717Z,45.75
2019-03-04T06:11:51.763Z,54.08
2019-03-04T06:14:22.826Z,35.30
2019-03-04T06:16:54.038Z,53.40
2019-03-04T06:19:25.124Z,51.23
2019-03-04T06:21:56.281Z,50.78
2019-03-04T06:24:27.387Z,62.85
2019-03-04T06:26:58.417Z,54.53
2019-03-04T06:29:29.459Z,45.65
2019-03-04T06:32:00.640Z,63.98
2019-03-04T06:34:31.762Z,53.13
2019-03-04T06:37:02.862Z,38.67
2019-03-04T06:39:34.045Z,54.53
2019-03-04T06:42:05.190Z,38.55
2019-03-04T06:44:37.562Z,41.48
2019-03-04T06:47:09.736Z,39.30
2019-03-04T06:49:40.776Z,45.78
2019-03-04T06:52:11.928Z,48.08
2019-03-04T06:54:52.138Z,49.98
2019-03-04T06:57:28.382Z,52.58
2019-03-04T07:00:21.576Z,32.58
2019-03-04T07:02:52.627Z,43.48
2019-03-04T07:05:45.990Z,32.93
2019-03-04T07:08:35.466Z,32.63
2019-03-04T07:11:06.525Z,32.40
2019-03-04T07:13:37.704Z,32.80
2019-03-04T07:16:08.675Z,40.70
2019-03-04T07:18:39.914Z,38.10
2019-03-04T07:21:12.819Z,54.83
2019-03-04T07:23:43.921Z,45.23
2019-03-04T07:26:15.299Z,53.30
2019-03-04T07:28:46.501Z,60.73
2019-03-04T07:31:17.712Z,45.03
2019-03-04T07:33:48.923Z,50.30
2019-03-04T07:36:19.914Z,42.10
2019-03-04T07:38:58.152Z,40.65
2019-03-04T07:41:29.353Z,38.65
2019-03-04T07:44:00.628Z,34.10
2019-03-04T07:46:31.701Z,40.98
2019-03-04T07:49:02.995Z,40.80
2019-03-04T07:51:34.424Z,39.20
2019-03-04T07:54:05.552Z,44.10
2019-03-04T07:56:37.081Z,46.73
2019-03-04T07:59:08.328Z,40.12
2019-03-04T08:01:39.634Z,52.20
2019-03-04T08:04:10.858Z,42.83
2019-03-04T08:06:42.150Z,49.98
2019-03-04T08:09:16.718Z,47.17
2019-03-04T08:12:10.640Z,38.23
2019-03-04T08:14:42.019Z,55.98
2019-03-04T08:17:13.246Z,53.23
2019-03-04T08:19:44.218Z,48.48
2019-03-04T08:22:15.831Z,56.35
2019-03-04T08:24:46.902Z,50.15
2019-03-04T08:27:18.522Z,41.33
2019-03-04T08:29:49.739Z,37.15
2019-03-04T08:32:21.017Z,34.05
2019-03-04T08:34:52.222Z,38.48
2019-03-04T08:37:23.413Z,38.28
2019-03-04T08:39:54.612Z,48.90
2019-03-04T08:42:26.018Z,51.95
2019-03-04T08:44:57.025Z,92.15
2019-03-04T08:47:28.121Z,41.42
2019-03-04T08:49:59.165Z,57.15
2019-03-04T08:52:30.379Z,33.90
2019-03-04T08:55:01.686Z,45.48
2019-03-04T08:57:33.345Z,24.90
2019-03-04T09:00:10.685Z,28.92
2019-03-04T09:02:42.103Z,69.37
2019-03-04T09:05:13.240Z,58.42
2019-03-04T09:07:44.442Z,48.75
2019-03-04T09:10:18.356Z,52.38
2019-03-04T09:12:49.448Z,58.75
2019-03-04T09:15:20.565Z,37.95
2019-03-04T09:17:51.866Z,55.95
2019-03-04T09:20:23.084Z,41.65
2019-03-04T09:22:56.491Z,51.68
2019-03-04T09:25:47.804Z,113.88
2019-03-04T09:28:19.486Z,54.93
2019-03-04T09:30:50.623Z,216.60
2019-03-04T09:33:21.657Z,73.10
2019-03-04T09:35:52.987Z,83.45
2019-03-04T09:38:24.245Z,141.57
2019-03-04T09:40:57.232Z,48.38
2019-03-04T09:43:28.444Z,100.02
2019-03-04T09:46:00.259Z,62.98
2019-03-04T09:48:31.385Z,55.25
2019-03-04T09:51:02.778Z,40.73
2019-03-04T09:53:39.384Z,51.10
2019-03-04T09:56:06.720Z,35.68
2019-03-04T09:58:42.568Z,43.90
2019-03-04T10:01:21.591Z,64.30
2019-03-04T10:04:21.454Z,59.38
2019-03-04T10:07:01.817Z,79.80
2019-03-04T10:09:42.744Z,48.13
2019-03-04T10:12:22.630Z,71.33
2019-03-04T10:15:27.173Z,39.33
2019-03-04T10:18:18.429Z,41.80
2019-03-04T10:20:55.426Z,34.43
2019-03-04T10:23:50.848Z,40.58
2019-03-04T10:26:40.982Z,47.33
2019-03-04T10:29:15.370Z,51.53
2019-03-04T10:31:58.672Z,35.63
2019-03-04T10:34:54.816Z,60.50
2019-03-04T10:37:57.577Z,40.48
2019-03-04T10:40:48.114Z,39.08
2019-03-04T10:43:48.234Z,50.30
2019-03-04T10:46:40.955Z,37.48
2019-03-04T10:49:11.988Z,39.27
2019-03-04T10:51:43.088Z,36.98
2019-03-04T10:54:14.260Z,41.73
2019-03-04T10:56:45.332Z,43.28
2019-03-04T10:59:16.420Z,48.58
2019-03-04T11:01:49.917Z,63.38
2019-03-04T11:04:20.211Z,45.48
2019-03-04T11:06:51.245Z,44.18
2019-03-04T11:09:22.197Z,38.53
2019-03-04T11:11:53.126Z,37.50
2019-03-04T11:14:24.195Z,43.60
2019-03-04T11:16:55.127Z,49.03
2019-03-04T11:19:26.219Z,62.30
2019-03-04T11:21:57.277Z,56.00
2019-03-04T11:24:28.303Z,48.23
2019-03-04T11:27:00.506Z,51.75
2019-03-04T11:29:31.788Z,51.98
2019-03-04T11:32:03.743Z,49.25
2019-03-04T11:34:34.866Z,45.95
2019-03-04T11:37:05.825Z,42.17
2019-03-04T11:39:47.311Z,53.30
2019-03-04T11:42:18.358Z,47.45
2019-03-04T11:44:49.393Z,61.00
2019-03-04T11:47:22.218Z,39.40
2019-03-04T11:49:53.523Z,50.20
2019-03-04T11:52:24.634Z,39.13
2019-03-04T11:54:56.081Z,41.33
2019-03-04T11:57:27.128Z,37.75
2019-03-04T11:59:58.355Z,34.03
2019-03-04T12:02:38.552Z,41.37
2019-03-04T12:05:02.644Z,45.92
2019-03-04T12:07:33.733Z,41.70
2019-03-04T12:10:07.998Z,35.43
2019-03-04T12:12:39.276Z,39.78
2019-03-04T12:15:13.777Z,47.73
2019-03-04T12:17:44.989Z,37.85
2019-03-04T12:20:16.492Z,38.58
2019-03-04T12:22:47.622Z,39.78
2019-03-04T12:25:20.569Z,32.88
2019-03-04T12:27:51.488Z,37.95
2019-03-04T12:30:24.008Z,33.48
2019-03-04T12:32:55.104Z,34.13
2019-03-04T12:35:26.102Z,36.33
2019-03-04T12:37:57.086Z,34.40
2019-03-04T12:40:28.023Z,32.60
2019-03-04T12:42:59.208Z,35.28
2019-03-04T12:45:34.446Z,32.30
2019-03-04T12:48:03.161Z,34.73
2019-03-04T12:50:35.666Z,36.15
2019-03-04T12:53:06.691Z,40.88
2019-03-04T12:55:37.710Z,44.77
2019-03-04T12:58:08.853Z,37.10
2019-03-04T13:00:40.141Z,34.43
2019-03-04T13:03:17.125Z,38.88
2019-03-04T13:05:48.006Z,32.88
2019-03-04T13:08:18.870Z,33.75
2019-03-04T13:10:50.009Z,32.50
2019-03-04T13:13:21.108Z,34.50
2019-03-04T13:15:52.144Z,35.48
2019-03-04T13:18:23.094Z,32.05
2019-03-04T13:20:54.120Z,35.05
2019-03-04T13:23:25.169Z,30.43
2019-03-04T13:25:56.238Z,35.73
2019-03-04T13:28:27.234Z,32.75
2019-03-04T13:30:58.300Z,37.90
2019-03-04T13:33:29.311Z,32.28
2019-03-04T13:36:00.325Z,33.30
2019-03-04T13:38:31.395Z,36.58
2019-03-04T13:41:02.289Z,39.38
2019-03-04T13:43:33.283Z,35.00
2019-03-04T13:46:04.433Z,33.67
2019-03-04T13:48:35.461Z,39.03
2019-03-04T13:51:06.338Z,35.63
2019-03-04T13:53:37.406Z,38.60
2019-03-04T13:56:08.343Z,42.08
2019-03-04T13:58:39.513Z,39.53
2019-03-04T14:01:10.551Z,38.35
2019-03-04T14:03:41.504Z,34.88
2019-03-04T14:06:12.496Z,35.15
2019-03-04T14:08:43.589Z,43.35
2019-03-04T14:11:14.572Z,36.40
2019-03-04T14:13:45.490Z,33.13
2019-03-04T14:16:16.429Z,37.70
2019-03-04T14:18:47.418Z,33.28
2019-03-04T14:21:18.511Z,34.03
2019-03-04T14:23:49.469Z,35.73
2019-03-04T14:26:20.672Z,32.13
2019-03-04T14:28:51.990Z,32.60
2019-03-04T14:31:22.986Z,35.63
2019-03-04T14:33:54.003Z,35.10
2019-03-04T14:36:24.941Z,35.48
2019-03-04T14:38:55.951Z,35.80
2019-03-04T14:41:27.049Z,36.73
2019-03-04T14:43:58.110Z,32.85
2019-03-04T14:46:28.985Z,29.40
2019-03-04T14:49:00.931Z,36.98
2019-03-04T14:51:32.097Z,38.83
2019-03-04T14:54:03.428Z,35.43
2019-03-04T14:56:34.434Z,32.00
2019-03-04T14:59:10.955Z,32.98
2019-03-04T15:01:39.484Z,30.45
2019-03-04T15:04:10.875Z,31.75
2019-03-04T15:06:42.277Z,33.35
2019-03-04T15:09:13.829Z,37.17
2019-03-04T15:11:44.920Z,32.83
2019-03-04T15:14:15.857Z,32.53
2019-03-04T15:16:46.858Z,29.42
2019-03-04T15:19:17.873Z,36.03
2019-03-04T15:21:49.274Z,31.62
2019-03-04T15:24:21.469Z,44.90
2019-03-04T15:26:52.485Z,39.35
2019-03-04T15:29:23.946Z,59.40
2019-03-04T15:31:54.887Z,41.48
2019-03-04T15:34:28.448Z,41.55
2019-03-04T15:39:30.063Z,42.38
2019-03-04T15:42:01.124Z,37.00
2019-03-04T15:44:32.092Z,32.28
2019-03-04T15:47:03.053Z,30.72
2019-03-04T15:49:34.057Z,33.88
2019-03-04T15:52:06.787Z,38.17
2019-03-04T15:54:37.981Z,38.08
2019-03-04T15:57:11.307Z,37.20
2019-03-04T15:59:41.920Z,37.60
2019-03-04T16:02:13.101Z,38.70
2019-03-04T16:04:44.285Z,40.52
2019-03-04T16:07:15.865Z,44.83
2019-03-04T16:09:47.432Z,41.42
2019-03-04T16:12:20.056Z,45.33
2019-03-04T16:14:51.129Z,42.70
2019-03-04T16:17:22.211Z,45.63
2019-03-04T16:19:53.317Z,44.30
2019-03-04T16:22:24.343Z,41.20
2019-03-04T16:24:55.404Z,41.30
2019-03-04T16:27:26.538Z,42.58
2019-03-04T16:29:57.710Z,43.28
2019-03-04T16:32:28.857Z,43.35
2019-03-04T16:34:59.815Z,42.25
2019-03-04T16:37:31.082Z,42.03
2019-03-04T16:40:02.166Z,41.30
2019-03-04T16:42:33.304Z,43.60
2019-03-04T16:45:07.110Z,43.95
2019-03-04T16:47:38.129Z,40.05
2019-03-04T16:50:17.259Z,40.20
2019-03-04T16:52:51.666Z,43.73
2019-03-04T16:55:22.686Z,43.13
2019-03-04T16:57:53.888Z,43.08
2019-03-04T17:00:24.895Z,43.70
2019-03-04T17:02:55.990Z,44.03
2019-03-04T17:05:27.669Z,41.63
2019-03-04T17:07:59.120Z,39.13
2019-03-04T17:10:30.215Z,39.40
2019-03-04T17:13:01.255Z,40.88
2019-03-04T17:15:32.251Z,38.50
2019-03-04T17:18:03.246Z,39.08
2019-03-04T17:20:34.257Z,37.05
2019-03-04T17:23:05.636Z,39.70
2019-03-04T17:25:36.633Z,37.10
2019-03-04T17:28:07.580Z,39.85
2019-03-04T17:30:38.578Z,41.28
2019-03-04T17:33:09.550Z,48.38
2019-03-04T17:35:40.484Z,40.08
2019-03-04T17:38:11.600Z,42.03
2019-03-04T17:40:42.897Z,38.80
2019-03-04T17:43:13.921Z,44.38
2019-03-04T17:45:44.962Z,50.45
2019-03-04T17:48:16.038Z,45.52
2019-03-04T17:50:47.823Z,45.33
2019-03-04T17:53:18.741Z,73.62
2019-03-04T17:55:49.713Z,71.87
2019-03-04T17:58:20.731Z,43.80
2019-03-04T18:00:53.704Z,44.20
2019-03-04T18:03:24.697Z,44.35
2019-03-04T18:05:55.756Z,45.23
2019-03-04T18:08:26.913Z,39.35
2019-03-04T18:10:58.045Z,47.35
2019-03-04T18:13:29.145Z,46.13
2019-03-04T18:16:00.101Z,58.08
2019-03-04T18:18:31.073Z,48.90
2019-03-04T18:21:02.010Z,61.98
2019-03-04T18:23:32.990Z,63.90
2019-03-04T18:26:08.626Z,90.32
2019-03-04T18:28:58.056Z,131.55
2019-03-04T18:31:47.225Z,98.55
2019-03-04T18:34:27.353Z,104.05
2019-03-04T18:37:16.605Z,117.17
2019-03-04T18:40:03.171Z,201.27
2019-03-04T18:42:49.071Z,125.18
2019-03-04T18:45:26.340Z,179.78
2019-03-04T18:48:32.480Z,116.05
2019-03-04T18:51:03.526Z,98.05
2019-03-04T18:53:34.537Z,104.63
2019-03-04T18:56:05.601Z,86.40
2019-03-04T18:58:36.781Z,77.15
2019-03-04T19:01:08.652Z,73.97
2019-03-04T19:03:41.276Z,97.60
2019-03-04T19:06:15.151Z,94.42
2019-03-04T19:08:46.214Z,82.45
2019-03-04T19:11:17.178Z,127.80
2019-03-04T19:13:48.404Z,141.80
2019-03-04T19:16:19.645Z,162.75
2019-03-04T19:18:50.819Z,131.90
2019-03-04T19:21:21.958Z,111.50
2019-03-04T19:23:53.201Z,158.97
2019-03-04T19:26:24.385Z,123.13
2019-03-04T19:28:55.433Z,118.30
2019-03-04T19:31:26.478Z,106.27
2019-03-04T19:33:57.613Z,114.88
2019-03-04T19:36:28.817Z,82.92
2019-03-04T19:38:59.792Z,197.17
2019-03-04T19:41:30.885Z,84.40
2019-03-04T19:44:02.213Z,69.07
2019-03-04T19:46:33.273Z,141.07
2019-03-04T19:49:04.352Z,87.50
2019-03-04T19:51:35.454Z,178.07
2019-03-04T19:54:08.141Z,67.10
2019-03-04T19:56:39.099Z,63.45
2019-03-04T19:59:10.045Z,125.40
2019-03-04T20:01:41.314Z,139.68
2019-03-04T20:04:12.373Z,106.90
2019-03-04T20:06:43.576Z,79.72
2019-03-04T20:09:14.689Z,85.90
2019-03-04T20:11:46.073Z,101.87
2019-03-04T20:14:17.495Z,158.35
2019-03-04T20:16:49.696Z,166.82
2019-03-04T20:19:20.860Z,97.00
2019-03-04T20:21:52.109Z,143.50
2019-03-04T20:24:23.275Z,158.35
2019-03-04T20:26:54.438Z,126.90
2019-03-04T20:29:25.524Z,99.75
2019-03-04T20:31:56.532Z,76.42
2019-03-04T20:34:27.515Z,132.55
2019-03-04T20:36:59.718Z,70.97
2019-03-04T20:39:30.797Z,73.92
2019-03-04T20:42:01.937Z,64.55
2019-03-04T20:44:34.008Z,157.27
2019-03-04T20:47:05.080Z,196.57
2019-03-04T20:49:36.295Z,59.25
2019-03-04T20:52:07.338Z,62.85
2019-03-04T20:54:38.407Z,183.70
2019-03-04T20:57:09.552Z,122.60
2019-03-04T20:59:40.759Z,104.55
2019-03-04T21:02:11.960Z,95.10
2019-03-04T21:04:43.538Z,90.67
2019-03-04T21:07:14.719Z,117.53
2019-03-04T21:09:45.837Z,97.02
2019-03-04T21:12:18.388Z,97.75
2019-03-04T21:14:49.655Z,58.03
2019-03-04T21:17:20.609Z,112.05
2019-03-04T21:19:51.649Z,75.78
2019-03-04T21:22:22.585Z,81.55
2019-03-04T21:24:53.580Z,97.70
2019-03-04T21:27:24.694Z,58.17
2019-03-04T21:29:58.912Z,51.18
2019-03-04T21:32:33.116Z,88.25
2019-03-04T21:35:19.745Z,62.62
2019-03-04T21:37:51.113Z,50.12
2019-03-04T21:40:28.377Z,59.48
2019-03-04T21:43:11.356Z,70.60
2019-03-04T21:46:05.606Z,50.33
2019-03-04T21:48:39.906Z,81.20
2019-03-04T21:51:23.132Z,89.90
2019-03-04T21:53:54.263Z,92.62
2019-03-04T21:56:51.190Z,78.78
2019-03-04T21:59:23.132Z,63.75
2019-03-04T22:02:00.201Z,50.35
2019-03-04T22:04:31.373Z,55.48
2019-03-04T22:07:02.302Z,61.85
2019-03-04T22:09:33.376Z,70.37
2019-03-04T22:12:06.244Z,62.03
2019-03-04T22:14:37.380Z,64.30
2019-03-04T22:17:09.334Z,55.78
2019-03-04T22:19:40.289Z,71.85
2019-03-04T22:22:11.274Z,55.67
2019-03-04T22:24:42.595Z,57.45
2019-03-04T22:27:13.660Z,72.53
2019-03-04T22:29:44.709Z,66.30
2019-03-04T22:32:15.655Z,64.47
2019-03-04T22:34:46.685Z,59.23
2019-03-04T22:37:17.736Z,75.65
2019-03-04T22:39:48.772Z,61.85
2019-03-04T22:42:19.709Z,53.13
2019-03-04T22:44:50.655Z,60.55
2019-03-04T22:47:21.707Z,76.85
2019-03-04T22:49:52.805Z,59.03
2019-03-04T22:52:23.764Z,58.70
2019-03-04T22:54:54.685Z,70.17
2019-03-04T22:57:25.648Z,52.62
2019-03-04T22:59:56.597Z,49.25
2019-03-04T23:02:28.023Z,64.10
2019-03-04T23:04:58.974Z,45.55
2019-03-04T23:07:29.926Z,57.73
2019-03-04T23:10:00.908Z,56.53
2019-03-04T23:12:39.248Z,58.30
2019-03-04T23:15:22.497Z,55.12
2019-03-04T23:17:53.514Z,62.90
2019-03-04T23:20:24.482Z,61.50
2019-03-04T23:22:55.411Z,61.25
2019-03-04T23:25:26.317Z,88.65
2019-03-04T23:27:57.254Z,94.32
2019-03-04T23:30:28.353Z,87.67
2019-03-04T23:32:59.227Z,70.70
2019-03-04T23:35:30.266Z,72.03
2019-03-04T23:38:01.262Z,65.78
2019-03-04T23:40:32.334Z,53.85
2019-03-04T23:43:03.197Z,52.13
2019-03-04T23:45:34.217Z,60.67
2019-03-04T23:48:05.452Z,67.42
2019-03-04T23:50:36.415Z,59.40
2019-03-04T23:53:07.410Z,90.57
2019-03-04T23:55:38.398Z,60.83
2019-03-04T23:58:09.388Z,57.20
